Der Flugplatz ist nur beschränkt benutzbar ! 

Keine Landungen auswärtiger Flugzeuge. Keine Platzrunden!!!

123.15 MHz
RWY 05/23

flüger beizli - Öffnungszeiten
Freitag ab 16:00
Samstag +Sonntag ab 11:00
Bei schönem Wetter öffnen wir früher! Tel.: 079 234 07 74

Herzlich willkommen auf der Homepage des Flugplatz Biel-Kappelen

Wir freuen uns über Ihren Besuch auf unserem schönen Flugplatz im Berner Seeland. Ob zu Fuss, per Velo, Motorrad, Auto oder Flugzeug Sie sind uns jederzeit herzlich willkommen. 


 

Wetter Kappelen

 


 

[source: ADDS]
METAR
LSZG 170020Z AUTO 06009KT 9999 SCT033 M05/M09 Q1024 =
TAF
SR / SS: 07:12 / 16:12 UTC ( 2017-01-17)

 


 

Besucherzähler

HeuteHeute2
Seit BeginnSeit Beginn79092
Guests 10

Flugplatz Biel-Kappelen LSZP - 123.15MHz - 032 384 46 84

Email: Diese E-Mail-Adresse ist vor Spambots geschützt! Zur Anzeige muss JavaScript eingeschaltet sein!
www.lszp.ch
2017 © by mb

Zum Anfang